Time;durP1;ratioP1;P1;durP2;ratioP2;P2;SDS_P1;SDS_P2;PMS_P1;PMS_P2;Temp;Humidity;BMP_temperature;BMP_pressure;BME280_temperature;BME280_humidity;BME280_pressure;Samples;Min_cycle;Max_cycle;Signal;HPM_P1;HPM_P2
2023/03/07 00:00:04;;;;;;;;;;;;;;;8.18;81.36;98927.53;349181;28;1527;-76
2023/03/07 00:00:14;;;;;;;;;;;;;;;8.16;80.93;98929.34;345776;28;4886;-75
2023/03/07 00:00:25;;;;;;;;;;;;;;;8.14;81.42;98926.81;344054;28;3003;-77
2023/03/07 00:00:35;;;;;;;;;;;;;;;8.12;81.38;98918.22;346410;28;1580;-76
2023/03/07 00:00:46;;;;;;;;;;;;;;;8.13;81.41;98929.47;346279;28;2008;-76
2023/03/07 00:00:56;;;;;;;;;;;;;;;8.12;81.25;98923.41;347149;28;3448;-76
2023/03/07 00:01:07;;;;;;;;;;;;;;;8.12;81.25;98925.19;346020;28;1804;-76
2023/03/07 00:01:24;;;;;;;;;;;;;;;8.13;81.24;98921.66;341864;28;5064;-76
2023/03/07 00:01:34;;;;;;;;;;;;;;;8.14;81.50;98929.41;340711;28;4984;-76
2023/03/07 00:01:45;;;;;;;;;;;;;;;8.14;81.44;98929.41;342559;28;1286;-76
2023/03/07 00:01:55;;;;;;;;;;;;;;;8.12;81.48;98926.03;344092;28;4662;-76
2023/03/07 00:02:05;;;;;;;;;;;;;;;8.11;81.23;98926.09;348461;28;996;-76
2023/03/07 00:02:16;;;;;;;;;;;;;;;8.12;81.03;98930.38;347182;28;2924;-75
2023/03/07 00:02:26;;;;;;;;;;;;;;;8.10;81.60;98935.66;346180;28;5340;-76
2023/03/07 00:02:36;;;;;;;;;;;;;;;8.10;81.57;98927.00;343010;28;4927;-76
2023/03/07 00:02:49;;;;;;;;;;;;;;;8.09;81.72;98933.97;344802;28;1551;-76
2023/03/07 00:02:59;;;;;;;;;;;;;;;8.09;81.49;98923.53;341672;28;4989;-76
2023/03/07 00:03:10;;;;;;;;;;;;;;;8.09;81.58;98931.38;345356;28;4042;-75
2023/03/07 00:03:21;;;;;;;;;;;;;;;8.08;81.39;98929.66;342351;28;5322;-75
2023/03/07 00:03:31;;;;;;;;;;;;;;;8.08;81.92;98937.47;344900;28;1270;-77
2023/03/07 00:03:41;;;;;;;;;;;;;;;8.08;81.95;98931.44;337849;29;4466;-77
2023/03/07 00:03:51;;;;;;;;;;;;;;;8.07;81.40;98930.56;338163;29;1582;-75
2023/03/07 00:04:02;;;;;;;;;;;;;;;8.08;81.91;98924.47;334759;29;4937;-74
2023/03/07 00:04:12;;;;;;;;;;;;;;;8.08;81.63;98934.88;338662;29;852;-74
2023/03/07 00:04:22;;;;;;;;;;;;;;;8.08;81.45;98937.47;338351;28;4861;-75
2023/03/07 00:04:32;;;;;;;;;;;;;;;8.08;81.89;98936.63;340835;29;1287;-75
2023/03/07 00:04:43;;;;;;;;;;;;;;;8.06;81.52;98931.50;336314;29;4940;-75
2023/03/07 00:04:54;;;;;;;;;;;;;;;8.04;81.89;98935.91;341234;28;3537;-75
2023/03/07 00:05:04;;;;;;;;;;;;;;;8.03;81.85;98929.00;341394;28;4992;-75
2023/03/07 00:05:14;;;;;;;;;;;;;;;8.01;82.12;98933.44;339760;29;934;-75
2023/03/07 00:05:25;;;;;;;;;;;;;;;8.01;81.73;98931.69;335155;29;7019;-75
2023/03/07 00:05:35;;;;;;;;;;;;;;;8.00;81.83;98929.97;336752;28;5530;-75
2023/03/07 00:05:45;;;;;;;;;;;;;;;8.00;81.78;98935.19;332672;29;6933;-75
2023/03/07 00:06:02;;;;;;;;;;;;;;;8.00;82.14;98931.75;343027;28;2124;-75
2023/03/07 00:06:12;;;;;;;;;;;;;;;7.98;81.79;98925.75;338375;29;3286;-76
2023/03/07 00:06:22;;;;;;;;;;;;;;;7.98;82.17;98921.38;335465;29;4448;-75
2023/03/07 00:06:33;;;;;;;;;;;;;;;7.97;82.73;98926.66;335512;29;5000;-76
2023/03/07 00:06:43;;;;;;;;;;;;;;;7.97;82.44;98929.25;335719;29;4069;-76
2023/03/07 00:06:54;;;;;;;;;;;;;;;7.92;82.92;98936.41;335684;29;1199;-75
2023/03/07 00:07:04;;;;;;;;;;;;;;;7.92;83.02;98926.00;334258;29;4442;-75
2023/03/07 00:07:14;;;;;;;;;;;;;;;7.92;82.57;98932.06;336757;29;3242;-75
2023/03/07 00:07:24;;;;;;;;;;;;;;;7.92;82.54;98926.00;333290;29;3864;-75
2023/03/07 00:07:35;;;;;;;;;;;;;;;7.91;82.83;98924.31;335474;29;5176;-76
2023/03/07 00:07:46;;;;;;;;;;;;;;;7.91;83.05;98919.94;334775;29;2891;-75
2023/03/07 00:07:56;;;;;;;;;;;;;;;7.93;82.75;98922.47;329418;29;1943;-75
2023/03/07 00:08:07;;;;;;;;;;;;;;;7.92;82.77;98924.22;328355;29;4943;-76
2023/03/07 00:08:17;;;;;;;;;;;;;;;7.92;82.70;98920.78;325699;30;2674;-76
2023/03/07 00:08:27;;;;;;;;;;;;;;;7.93;83.15;98927.69;323666;30;4701;-75
2023/03/07 00:08:37;;;;;;;;;;;;;;;7.93;82.92;98925.94;325404;30;1915;-75
2023/03/07 00:08:48;;;;;;;;;;;;;;;7.93;82.81;98927.69;321133;30;5041;-75
2023/03/07 00:08:59;;;;;;;;;;;;;;;7.91;82.98;98921.69;319883;30;1943;-74
2023/03/07 00:09:09;;;;;;;;;;;;;;;7.91;83.14;98919.09;321424;30;3489;-74
2023/03/07 00:09:19;;;;;;;;;;;;;;;7.89;83.76;98921.75;321540;30;3764;-74
2023/03/07 00:09:30;;;;;;;;;;;;;;;7.88;83.85;98930.47;319324;30;3165;-74
2023/03/07 00:09:40;;;;;;;;;;;;;;;7.87;83.77;98926.19;315311;30;2969;-73
2023/03/07 00:09:50;;;;;;;;;;;;;;;7.84;83.91;98923.69;313771;31;3273;-74
2023/03/07 00:10:01;;;;;;;;;;;;;;;7.84;83.74;98920.25;316992;31;803;-75
2023/03/07 00:10:11;;;;;;;;;;;;;;;7.85;83.52;98925.41;315644;31;4074;-75
2023/03/07 00:10:21;;;;;;;;;;;;;;;7.85;83.44;98928.00;314127;31;3083;-76
2023/03/07 00:10:31;;;;;;;;;;;;;;;7.86;83.69;98921.88;312928;31;3729;-75
2023/03/07 00:10:41;;;;;;;;;;;;;;;7.84;83.76;98928.06;316286;31;5426;-75
2023/03/07 00:10:52;;;;;;;;;;;;;;;7.83;83.73;98922.00;311127;31;3759;-75
2023/03/07 00:11:02;;;;;;;;;;;;;;;7.83;83.68;98923.75;311426;31;5285;-77
2023/03/07 00:11:13;;;;;;;;;;;;;;;7.82;83.91;98927.28;310963;31;4153;-76
2023/03/07 00:11:23;;;;;;;;;;;;;;;7.80;84.14;98926.53;310194;31;4835;-76
2023/03/07 00:11:33;;;;;;;;;;;;;;;7.79;84.39;98930.88;308611;31;3826;-75
2023/03/07 00:11:43;;;;;;;;;;;;;;;7.78;84.20;98928.34;305906;32;5163;-75
2023/03/07 00:11:54;;;;;;;;;;;;;;;7.73;84.12;98925.91;307001;32;4061;-75
2023/03/07 00:12:05;;;;;;;;;;;;;;;7.73;84.31;98925.06;304462;31;4634;-77
2023/03/07 00:12:15;;;;;;;;;;;;;;;7.73;84.35;98919.84;307734;32;797;-75
2023/03/07 00:12:25;;;;;;;;;;;;;;;7.72;84.55;98926.81;304499;32;4704;-76
2023/03/07 00:12:35;;;;;;;;;;;;;;;7.72;84.54;98923.38;307670;31;3591;-76
2023/03/07 00:12:46;;;;;;;;;;;;;;;7.72;84.42;98923.38;305298;32;3511;-76
2023/03/07 00:12:56;;;;;;;;;;;;;;;7.73;83.97;98920.72;307160;32;4276;-76
2023/03/07 00:13:07;;;;;;;;;;;;;;;7.74;84.49;98924.16;305705;31;4256;-76
2023/03/07 00:13:17;;;;;;;;;;;;;;;7.75;83.89;98925.84;305701;32;2983;-76
2023/03/07 00:13:29;;;;;;;;;;;;;;;7.74;84.15;98926.75;301390;32;5163;-75
2023/03/07 00:13:39;;;;;;;;;;;;;;;7.76;83.96;98919.75;302741;32;3973;-76
2023/03/07 00:13:49;;;;;;;;;;;;;;;7.77;83.77;98922.28;301893;31;5326;-76
2023/03/07 00:14:00;;;;;;;;;;;;;;;7.78;83.90;98923.13;306268;32;3881;-76
2023/03/07 00:14:10;;;;;;;;;;;;;;;7.78;84.44;98925.72;298442;32;6153;-75
2023/03/07 00:14:20;;;;;;;;;;;;;;;7.78;84.14;98917.91;299353;32;6905;-76
2023/03/07 00:14:30;;;;;;;;;;;;;;;7.76;83.88;98919.75;297501;32;4056;-76
2023/03/07 00:14:41;;;;;;;;;;;;;;;7.74;84.31;98918.94;297094;32;6456;-75
2023/03/07 00:14:51;;;;;;;;;;;;;;;7.71;84.47;98922.53;293591;32;5111;-76
2023/03/07 00:15:01;;;;;;;;;;;;;;;7.70;83.95;98917.38;294350;33;4014;-75
2023/03/07 00:15:11;;;;;;;;;;;;;;;7.70;83.69;98919.97;291601;33;4736;-75
2023/03/07 00:15:21;;;;;;;;;;;;;;;7.67;84.18;98916.59;290946;33;4755;-74
2023/03/07 00:15:32;;;;;;;;;;;;;;;7.66;84.21;98920.09;287256;33;4547;-76
2023/03/07 00:15:42;;;;;;;;;;;;;;;7.67;83.71;98924.41;288661;34;959;-75
2023/03/07 00:15:52;;;;;;;;;;;;;;;7.67;84.08;98916.59;282054;34;6193;-75
2023/03/07 00:16:03;;;;;;;;;;;;;;;7.68;83.82;98928.72;280055;34;8783;-75
2023/03/07 00:16:14;;;;;;;;;;;;;;;7.68;83.65;98920.91;281278;35;5004;-75
2023/03/07 00:16:25;;;;;;;;;;;;;;;7.71;83.87;98921.69;279289;34;9206;-74
2023/03/07 00:16:35;;;;;;;;;;;;;;;7.70;83.36;98917.38;277121;34;10237;-74
2023/03/07 00:18:29;;;;;;;;;;;;;;;7.67;83.63;98927.00;2484592;27;19928;-77
2023/03/07 00:18:40;;;;;;;;;;;;;;;7.67;83.13;98927.00;351844;27;3993;-76
2023/03/07 00:18:50;;;;;;;;;;;;;;;7.67;83.54;98929.63;351951;28;2846;-76
2023/03/07 00:19:00;;;;;;;;;;;;;;;7.67;83.15;98931.38;349549;28;3839;-76
2023/03/07 00:19:11;;;;;;;;;;;;;;;7.66;83.26;98922.72;350639;28;1215;-76
2023/03/07 00:19:21;;;;;;;;;;;;;;;7.66;83.55;98922.72;346609;28;3895;-76
2023/03/07 00:19:31;;;;;;;;;;;;;;;7.65;83.17;98922.78;346461;28;1185;-76
2023/03/07 00:19:42;;;;;;;;;;;;;;;7.63;83.24;98925.44;347019;28;3777;-75
2023/03/07 00:19:52;;;;;;;;;;;;;;;7.63;83.43;98925.44;351673;28;3112;-77
2023/03/07 00:20:06;;;;;;;;;;;;;;;7.62;84.04;98926.34;351079;28;3962;-75
2023/03/07 00:20:16;;;;;;;;;;;;;;;7.59;83.38;98929.06;347716;28;3281;-76
2023/03/07 00:20:26;;;;;;;;;;;;;;;7.59;83.47;98923.00;348001;28;3852;-76
2023/03/07 00:20:38;;;;;;;;;;;;;;;7.57;84.01;98920.47;346982;28;2915;-76
2023/03/07 00:21:18;;;;;;;;;;;;;;;7.54;83.94;98925.78;346780;28;4705;-76
2023/03/07 00:21:30;;;;;;;;;;;;;;;7.51;83.21;98920.72;341718;28;4046;-77
2023/03/07 00:21:40;;;;;;;;;;;;;;;7.53;83.81;98920.66;340738;28;4990;-77
2023/03/07 00:21:50;;;;;;;;;;;;;;;7.52;83.71;98922.41;339488;28;4030;-74
2023/03/07 00:22:00;;;;;;;;;;;;;;;7.52;83.93;98925.00;343570;28;5057;-75
2023/03/07 00:22:11;;;;;;;;;;;;;;;7.51;83.49;98920.72;341530;28;3829;-75
2023/03/07 00:22:21;;;;;;;;;;;;;;;7.52;83.88;98925.00;342584;28;3149;-74
2023/03/07 00:22:33;;;;;;;;;;;;;;;7.52;83.61;98917.19;343483;28;1935;-75
2023/03/07 00:22:45;;;;;;;;;;;;;;;7.53;83.42;98918.91;344139;28;4761;-74
2023/03/07 00:22:55;;;;;;;;;;;;;;;7.52;82.97;98919.81;343130;28;3913;-74
2023/03/07 00:23:06;;;;;;;;;;;;;;;7.53;83.29;98926.72;342526;28;3104;-74
2023/03/07 00:23:16;;;;;;;;;;;;;;;7.53;82.89;98924.09;342439;28;3731;-75
2023/03/07 00:23:26;;;;;;;;;;;;;;;7.56;83.16;98923.97;346080;28;3043;-74
2023/03/07 00:23:37;;;;;;;;;;;;;;;7.55;82.75;98924.88;344490;28;2972;-74
2023/03/07 00:23:47;;;;;;;;;;;;;;;7.56;82.69;98926.59;342259;28;6785;-75
2023/03/07 00:23:57;;;;;;;;;;;;;;;7.57;82.77;98924.81;344998;28;3934;-75
2023/03/07 00:24:08;;;;;;;;;;;;;;;7.57;82.76;98930.88;344170;28;2728;-75
2023/03/07 00:24:18;;;;;;;;;;;;;;;7.58;82.61;98924.78;346066;28;2859;-75
2023/03/07 00:24:28;;;;;;;;;;;;;;;7.59;82.67;98921.25;345392;28;2866;-75
2023/03/07 00:24:38;;;;;;;;;;;;;;;7.57;82.21;98923.06;343707;28;3801;-75
2023/03/07 00:24:49;;;;;;;;;;;;;;;7.55;82.98;98930.09;343650;28;4996;-75
2023/03/07 00:24:59;;;;;;;;;;;;;;;7.54;82.29;98919.75;346380;28;1317;-75
2023/03/07 00:25:09;;;;;;;;;;;;;;;7.53;82.45;98926.72;342703;28;4912;-75
2023/03/07 00:25:19;;;;;;;;;;;;;;;7.51;82.87;98920.72;345323;28;1457;-75
2023/03/07 00:25:30;;;;;;;;;;;;;;;7.50;82.54;98916.41;341590;28;5108;-75
2023/03/07 00:25:40;;;;;;;;;;;;;;;7.52;82.39;98918.94;345501;28;1226;-75
2023/03/07 00:26:00;;;;;;;;;;;;;;;7.50;82.81;98913.81;345464;28;3961;-75
2023/03/07 00:26:17;;;;;;;;;;;;;;;7.48;82.57;98915.63;344789;28;3979;-76
2023/03/07 00:26:27;;;;;;;;;;;;;;;7.45;83.15;98920.09;342375;28;1377;-76
2023/03/07 00:26:38;;;;;;;;;;;;;;;7.44;82.61;98929.66;339963;28;6186;-77
2023/03/07 00:26:48;;;;;;;;;;;;;;;7.44;82.89;98921.84;338251;29;1451;-76
2023/03/07 00:26:59;;;;;;;;;;;;;;;7.46;83.19;98922.66;336545;29;5094;-76
2023/03/07 00:27:09;;;;;;;;;;;;;;;7.46;83.27;98922.66;336920;29;1603;-76
2023/03/07 00:27:19;;;;;;;;;;;;;;;7.48;82.82;98926.03;333280;29;4173;-76
2023/03/07 00:27:30;;;;;;;;;;;;;;;7.47;82.64;98916.53;337224;29;1200;-75
2023/03/07 00:27:40;;;;;;;;;;;;;;;7.48;83.13;98920.81;333768;29;3619;-74
2023/03/07 00:27:51;;;;;;;;;;;;;;;7.49;82.91;98917.31;334779;29;5076;-74
2023/03/07 00:28:01;;;;;;;;;;;;;;;7.50;83.09;98921.63;335760;29;4443;-74
2023/03/07 00:28:11;;;;;;;;;;;;;;;7.50;82.96;98915.56;335125;29;5218;-77
2023/03/07 00:28:21;;;;;;;;;;;;;;;7.50;83.13;98919.00;335662;29;4080;-75
2023/03/07 00:28:32;;;;;;;;;;;;;;;7.50;82.84;98912.97;338235;29;1329;-76
2023/03/07 00:28:42;;;;;;;;;;;;;;;7.52;82.87;98916.34;338555;29;3739;-76
2023/03/07 00:28:52;;;;;;;;;;;;;;;7.50;83.27;98918.16;332799;29;6881;-76
2023/03/07 00:29:03;;;;;;;;;;;;;;;7.49;82.87;98919.91;331895;29;3979;-76
2023/03/07 00:29:13;;;;;;;;;;;;;;;7.49;82.89;98912.13;332686;29;4949;-76
2023/03/07 00:29:23;;;;;;;;;;;;;;;7.50;83.30;98923.38;334608;29;1784;-75
2023/03/07 00:29:33;;;;;;;;;;;;;;;7.46;82.71;98916.59;331144;29;5116;-76
2023/03/07 00:29:43;;;;;;;;;;;;;;;7.44;83.42;98924.47;334658;29;823;-76
2023/03/07 00:29:54;;;;;;;;;;;;;;;7.44;83.56;98921.84;332251;29;4102;-76
2023/03/07 00:30:04;;;;;;;;;;;;;;;7.44;83.09;98921.84;334418;29;1261;-76
2023/03/07 00:30:14;;;;;;;;;;;;;;;7.42;82.92;98920.22;331043;29;3787;-76
2023/03/07 00:30:25;;;;;;;;;;;;;;;7.42;82.85;98922.81;333880;29;1816;-76
2023/03/07 00:30:35;;;;;;;;;;;;;;;7.41;82.96;98924.56;327636;29;5006;-76
2023/03/07 00:30:46;;;;;;;;;;;;;;;7.42;83.41;98915.00;329745;30;800;-76
2023/03/07 00:31:02;;;;;;;;;;;;;;;7.41;83.45;98918.53;331532;29;5062;-77
2023/03/07 00:31:13;;;;;;;;;;;;;;;7.40;83.49;98915.06;330491;29;3864;-75
2023/03/07 00:31:23;;;;;;;;;;;;;;;7.41;83.44;98911.56;329018;29;5170;-76
2023/03/07 00:31:33;;;;;;;;;;;;;;;7.41;83.03;98916.78;326783;30;4560;-74
2023/03/07 00:31:43;;;;;;;;;;;;;;;7.42;83.22;98926.28;326582;30;4971;-74
2023/03/07 00:31:54;;;;;;;;;;;;;;;7.41;83.35;98914.16;326561;30;3218;-74
2023/03/07 00:32:04;;;;;;;;;;;;;;;7.42;83.22;98920.22;324200;30;5011;-75
2023/03/07 00:32:14;;;;;;;;;;;;;;;7.41;83.29;98916.78;325604;30;3227;-75
2023/03/07 00:32:25;;;;;;;;;;;;;;;7.41;83.26;98919.38;321809;30;5380;-76
2023/03/07 00:32:35;;;;;;;;;;;;;;;7.41;82.73;98918.53;318674;30;3976;-75
2023/03/07 00:32:46;;;;;;;;;;;;;;;7.40;83.28;98917.69;317480;31;3068;-76
2023/03/07 00:32:56;;;;;;;;;;;;;;;7.41;82.66;98924.56;324198;30;2944;-75
2023/03/07 00:33:06;;;;;;;;;;;;;;;7.42;82.77;98921.06;320170;30;3826;-75
2023/03/07 00:33:16;;;;;;;;;;;;;;;7.42;83.12;98915.00;317796;31;885;-75
2023/03/07 00:33:27;;;;;;;;;;;;;;;7.43;82.66;98912.34;316115;30;3974;-75
2023/03/07 00:33:37;;;;;;;;;;;;;;;7.43;82.98;98912.34;315259;31;3508;-75
2023/03/07 00:33:47;;;;;;;;;;;;;;;7.41;82.99;98919.38;313473;31;4458;-75
2023/03/07 00:33:57;;;;;;;;;;;;;;;7.41;82.98;98924.56;315703;31;3091;-76
2023/03/07 00:34:08;;;;;;;;;;;;;;;7.40;83.50;98920.28;310209;31;4742;-75
2023/03/07 00:34:18;;;;;;;;;;;;;;;7.39;83.58;98921.19;307754;32;1153;-75
2023/03/07 00:34:28;;;;;;;;;;;;;;;7.39;83.65;98918.59;309980;31;4833;-75
2023/03/07 00:34:39;;;;;;;;;;;;;;;7.39;83.56;98922.94;310760;31;3923;-76
2023/03/07 00:34:49;;;;;;;;;;;;;;;7.34;83.35;98923.16;306843;31;5140;-75
2023/03/07 00:35:00;;;;;;;;;;;;;;;7.31;83.77;98923.28;311024;31;844;-75
2023/03/07 00:35:10;;;;;;;;;;;;;;;7.31;83.91;98923.28;302070;32;5627;-75
2023/03/07 00:35:20;;;;;;;;;;;;;;;7.29;83.94;98918.13;300398;32;4597;-76
2023/03/07 00:35:31;;;;;;;;;;;;;;;7.29;83.91;98917.28;302510;32;3776;-75
2023/03/07 00:35:42;;;;;;;;;;;;;;;7.30;83.96;98926.78;297957;32;5080;-75
2023/03/07 00:35:55;;;;;;;;;;;;;;;7.30;83.97;98916.38;297570;32;5095;-75
2023/03/07 00:36:12;;;;;;;;;;;;;;;7.29;83.93;98910.31;298233;32;3968;-74
2023/03/07 00:36:22;;;;;;;;;;;;;;;7.30;83.56;98927.63;297864;32;4884;-74
2023/03/07 00:36:33;;;;;;;;;;;;;;;7.32;84.05;98915.41;296381;33;4751;-74
2023/03/07 00:36:43;;;;;;;;;;;;;;;7.34;83.56;98920.53;296970;33;2974;-74
2023/03/07 00:36:53;;;;;;;;;;;;;;;7.33;83.68;98924.91;296129;32;4229;-75
2023/03/07 00:37:04;;;;;;;;;;;;;;;7.31;83.56;98918.06;295242;33;5053;-75
2023/03/07 00:37:14;;;;;;;;;;;;;;;7.31;83.27;98913.69;292116;33;2842;-75
2023/03/07 00:37:24;;;;;;;;;;;;;;;7.31;83.79;98924.13;288163;34;6590;-74
2023/03/07 00:37:34;;;;;;;;;;;;;;;7.31;83.51;98923.28;288916;33;6430;-75
2023/03/07 00:37:44;;;;;;;;;;;;;;;7.31;83.71;98918.91;290153;34;4873;-75
2023/03/07 00:37:55;;;;;;;;;;;;;;;7.30;83.86;98922.41;290140;33;6644;-75
2023/03/07 00:38:05;;;;;;;;;;;;;;;7.31;83.89;98918.06;285748;33;6261;-75
2023/03/07 00:38:15;;;;;;;;;;;;;;;7.29;83.80;98915.53;288735;34;864;-75
2023/03/07 00:38:26;;;;;;;;;;;;;;;7.29;83.60;98919.88;285390;34;6198;-74
2023/03/07 00:38:36;;;;;;;;;;;;;;;7.28;83.51;98915.56;285111;34;5383;-75
2023/03/07 00:38:47;;;;;;;;;;;;;;;7.26;84.04;98917.38;286424;34;4188;-76
2023/03/07 00:38:57;;;;;;;;;;;;;;;7.26;84.03;98917.38;283609;34;4510;-75
2023/03/07 00:39:07;;;;;;;;;;;;;;;7.26;83.76;98920.00;278494;35;6756;-75
2023/03/07 00:39:17;;;;;;;;;;;;;;;7.26;83.45;98914.78;277155;35;5023;-74
2023/03/07 00:39:28;;;;;;;;;;;;;;;7.25;83.63;98913.09;276119;35;9926;-75
2023/03/07 00:39:38;;;;;;;;;;;;;;;7.24;83.74;98912.25;271809;35;10243;-75
2023/03/07 00:39:48;;;;;;;;;;;;;;;7.24;83.82;98912.25;274209;36;1208;-75
2023/03/07 00:39:58;;;;;;;;;;;;;;;7.24;83.88;98916.59;268117;35;9936;-76
2023/03/07 00:41:35;;;;;;;;;;;;;;;7.28;83.85;98910.38;2489796;27;19932;-75
2023/03/07 00:41:46;;;;;;;;;;;;;;;7.29;83.62;98912.06;352649;27;4294;-75
2023/03/07 00:41:56;;;;;;;;;;;;;;;7.27;83.57;98912.13;351596;28;3369;-76
2023/03/07 00:42:06;;;;;;;;;;;;;;;7.29;83.79;98909.47;350225;28;3092;-75
2023/03/07 00:42:16;;;;;;;;;;;;;;;7.29;84.23;98909.47;345400;28;5250;-76
2023/03/07 00:42:27;;;;;;;;;;;;;;;7.29;83.86;98909.47;349300;28;1330;-76
2023/03/07 00:42:40;;;;;;;;;;;;;;;7.29;84.07;98912.06;347391;28;3879;-77
2023/03/07 00:42:51;;;;;;;;;;;;;;;7.26;83.82;98914.78;347908;28;1322;-75
2023/03/07 00:43:01;;;;;;;;;;;;;;;7.25;84.12;98902.69;346325;28;4024;-78
2023/03/07 00:43:11;;;;;;;;;;;;;;;7.25;84.26;98910.50;350414;28;5459;-75
2023/03/07 00:43:21;;;;;;;;;;;;;;;7.24;84.25;98906.19;349703;28;1330;-75
2023/03/07 00:43:32;;;;;;;;;;;;;;;7.24;84.30;98909.63;349518;28;4695;-76
2023/03/07 00:43:42;;;;;;;;;;;;;;;7.24;83.74;98906.19;351495;28;1420;-76
2023/03/07 00:43:52;;;;;;;;;;;;;;;7.25;84.03;98907.88;347964;28;4924;-75
2023/03/07 00:44:03;;;;;;;;;;;;;;;7.25;84.20;98907.88;349177;28;1307;-77
2023/03/07 00:44:13;;;;;;;;;;;;;;;7.24;83.81;98912.25;346821;28;4007;-76
2023/03/07 00:44:24;;;;;;;;;;;;;;;7.25;83.75;98905.28;349138;28;1240;-76
2023/03/07 00:44:34;;;;;;;;;;;;;;;7.25;84.10;98907.88;347302;28;3850;-75
2023/03/07 00:44:44;;;;;;;;;;;;;;;7.26;83.87;98906.97;349117;28;5323;-75
2023/03/07 00:44:55;;;;;;;;;;;;;;;7.26;83.93;98900.03;348188;28;3618;-75
2023/03/07 00:45:05;;;;;;;;;;;;;;;7.26;84.03;98900.03;348837;28;3110;-76
2023/03/07 00:45:15;;;;;;;;;;;;;;;7.25;84.34;98900.06;348561;28;4198;-76
2023/03/07 00:45:26;;;;;;;;;;;;;;;7.25;84.51;98902.69;347456;28;3064;-76
2023/03/07 00:45:36;;;;;;;;;;;;;;;7.18;84.72;98903.81;348375;28;3846;-76
2023/03/07 00:45:46;;;;;;;;;;;;;;;7.18;84.70;98906.44;347743;28;4937;-76
2023/03/07 00:45:56;;;;;;;;;;;;;;;7.16;84.26;98903.88;347083;28;3979;-76
2023/03/07 00:46:07;;;;;;;;;;;;;;;7.16;84.74;98900.44;346152;28;3159;-76
2023/03/07 00:46:17;;;;;;;;;;;;;;;7.16;84.46;98905.63;348637;28;3777;-76
2023/03/07 00:46:27;;;;;;;;;;;;;;;7.15;84.69;98906.53;347902;28;5055;-76
2023/03/07 00:46:38;;;;;;;;;;;;;;;7.12;84.59;98896.25;348266;28;3526;-76
2023/03/07 00:46:48;;;;;;;;;;;;;;;7.12;84.66;98904.06;346310;28;4868;-76
2023/03/07 00:46:59;;;;;;;;;;;;;;;7.12;84.97;98896.25;348669;28;3749;-76
2023/03/07 00:47:09;;;;;;;;;;;;;;;7.14;84.73;98902.25;346033;28;5828;-76
2023/03/07 00:47:20;;;;;;;;;;;;;;;7.14;84.41;98902.25;349586;28;2937;-76
2023/03/07 00:47:30;;;;;;;;;;;;;;;7.15;84.57;98896.13;347889;28;3124;-76
2023/03/07 00:47:41;;;;;;;;;;;;;;;7.16;84.83;98900.44;347552;28;4101;-76
2023/03/07 00:47:51;;;;;;;;;;;;;;;7.18;84.65;98901.22;347281;28;3179;-76
2023/03/07 00:48:01;;;;;;;;;;;;;;;7.18;84.80;98903.81;346016;28;3715;-76
2023/03/07 00:48:11;;;;;;;;;;;;;;;7.20;84.13;98902.00;348601;28;4886;-76
2023/03/07 00:48:21;;;;;;;;;;;;;;;7.21;84.43;98895.91;343254;28;5009;-76
2023/03/07 00:48:33;;;;;;;;;;;;;;;7.22;84.31;98892.38;343392;28;5601;-76
2023/03/07 00:48:43;;;;;;;;;;;;;;;7.23;84.51;98894.09;343244;28;4619;-76
2023/03/07 00:48:53;;;;;;;;;;;;;;;7.25;84.16;98893.13;348089;28;1262;-76
2023/03/07 00:49:05;;;;;;;;;;;;;;;7.24;84.35;98888.81;346701;28;2838;-76
2023/03/07 00:49:16;;;;;;;;;;;;;;;7.26;84.43;98893.97;345619;28;1231;-76
2023/03/07 00:49:27;;;;;;;;;;;;;;;7.27;84.08;98895.66;343987;28;4788;-75
2023/03/07 00:49:38;;;;;;;;;;;;;;;7.28;84.32;98897.34;342094;28;1368;-76
2023/03/07 00:49:48;;;;;;;;;;;;;;;7.27;84.33;98885.25;340229;28;4798;-76
2023/03/07 00:49:58;;;;;;;;;;;;;;;7.28;84.22;98892.16;339279;29;1376;-76
2023/03/07 00:50:08;;;;;;;;;;;;;;;7.29;84.19;98894.69;339490;29;4710;-76
2023/03/07 00:50:19;;;;;;;;;;;;;;;7.25;84.43;98892.28;338144;29;5183;-76
2023/03/07 00:50:29;;;;;;;;;;;;;;;7.18;84.33;98885.59;334225;29;4253;-76
2023/03/07 00:50:39;;;;;;;;;;;;;;;7.19;84.39;98892.50;337123;29;3360;-76
2023/03/07 00:50:50;;;;;;;;;;;;;;;7.18;84.54;98890.81;336395;29;3922;-76
2023/03/07 00:51:00;;;;;;;;;;;;;;;7.16;84.91;98890.88;337013;29;4423;-76
2023/03/07 00:51:11;;;;;;;;;;;;;;;7.18;85.07;98896.00;337601;29;3854;-75
2023/03/07 00:51:21;;;;;;;;;;;;;;;7.16;84.69;98890.88;333097;29;4354;-76
2023/03/07 00:51:31;;;;;;;;;;;;;;;7.16;84.46;98892.63;332674;29;3828;-76
2023/03/07 00:51:41;;;;;;;;;;;;;;;7.16;84.55;98895.22;330949;29;2764;-76
2023/03/07 00:51:52;;;;;;;;;;;;;;;7.17;84.66;98896.91;331381;29;3964;-76
2023/03/07 00:52:02;;;;;;;;;;;;;;;7.13;84.61;98890.13;334215;29;4640;-76
2023/03/07 00:52:12;;;;;;;;;;;;;;;7.11;84.88;98886.75;336453;29;1709;-76
2023/03/07 00:52:22;;;;;;;;;;;;;;;7.10;85.33;98892.84;328942;29;4887;-76
2023/03/07 00:52:33;;;;;;;;;;;;;;;7.09;85.06;98891.16;330766;29;3542;-74
2023/03/07 00:52:43;;;;;;;;;;;;;;;7.11;85.28;98884.16;323704;30;5122;-76
2023/03/07 00:52:53;;;;;;;;;;;;;;;7.12;84.74;98891.03;328168;30;3954;-76
2023/03/07 00:53:03;;;;;;;;;;;;;;;7.13;85.04;98884.94;330123;29;2963;-75
2023/03/07 00:53:14;;;;;;;;;;;;;;;7.13;84.94;98893.59;330058;29;4086;-75
2023/03/07 00:53:25;;;;;;;;;;;;;;;7.15;84.50;98885.72;326550;30;5219;-75
2023/03/07 00:53:36;;;;;;;;;;;;;;;7.17;84.45;98895.16;327228;30;1027;-75
2023/03/07 00:53:46;;;;;;;;;;;;;;;7.18;84.66;98896.88;326633;29;4125;-78
2023/03/07 00:53:56;;;;;;;;;;;;;;;7.18;84.88;98890.81;328215;29;3952;-75
2023/03/07 00:54:07;;;;;;;;;;;;;;;7.18;84.55;98890.81;321525;30;5044;-75
2023/03/07 00:54:17;;;;;;;;;;;;;;;7.17;84.39;98894.31;325967;29;3932;-76
2023/03/07 00:54:27;;;;;;;;;;;;;;;7.17;84.82;98889.97;324448;29;4931;-76
2023/03/07 00:54:37;;;;;;;;;;;;;;;7.19;84.53;98887.31;325383;30;3934;-75
2023/03/07 00:54:48;;;;;;;;;;;;;;;7.19;84.37;98892.50;326479;29;5074;-76
2023/03/07 00:54:58;;;;;;;;;;;;;;;7.18;84.44;98886.47;328459;29;2912;-76
2023/03/07 00:55:10;;;;;;;;;;;;;;;7.21;84.19;98890.69;326774;30;4189;-76
2023/03/07 00:55:20;;;;;;;;;;;;;;;7.21;84.69;98886.34;330138;29;3935;-76
2023/03/07 00:55:31;;;;;;;;;;;;;;;7.21;84.20;98886.34;326569;30;4913;-76
2023/03/07 00:55:41;;;;;;;;;;;;;;;7.22;84.30;98885.44;328143;29;1682;-76
2023/03/07 00:55:57;;;;;;;;;;;;;;;7.22;84.60;98887.19;326243;30;4725;-76
2023/03/07 00:56:11;;;;;;;;;;;;;;;7.22;84.22;98887.19;325713;30;3014;-75
2023/03/07 00:56:22;;;;;;;;;;;;;;;7.21;84.13;98885.50;323549;30;1375;-75
2023/03/07 00:56:32;;;;;;;;;;;;;;;7.21;84.37;98888.09;319923;30;5003;-76
2023/03/07 00:56:43;;;;;;;;;;;;;;;7.20;83.96;98884.63;319034;30;2833;-75
2023/03/07 00:56:53;;;;;;;;;;;;;;;7.22;84.55;98888.03;318383;30;3900;-75
2023/03/07 00:57:03;;;;;;;;;;;;;;;7.21;84.32;98885.50;321599;30;2903;-76
2023/03/07 00:57:13;;;;;;;;;;;;;;;7.21;84.34;98885.50;318988;30;4004;-75
2023/03/07 00:57:23;;;;;;;;;;;;;;;7.21;84.31;98880.28;319598;30;4068;-75
2023/03/07 00:57:34;;;;;;;;;;;;;;;7.22;83.82;98890.63;318146;30;3449;-76
2023/03/07 00:57:44;;;;;;;;;;;;;;;7.22;84.19;98881.97;316821;30;3863;-75
2023/03/07 00:57:54;;;;;;;;;;;;;;;7.22;83.85;98884.59;315127;31;4928;-75
2023/03/07 00:58:04;;;;;;;;;;;;;;;7.22;83.75;98881.97;316405;31;2687;-74
2023/03/07 00:58:15;;;;;;;;;;;;;;;7.23;84.16;98886.28;313276;31;3199;-76
2023/03/07 00:58:28;;;;;;;;;;;;;;;7.22;83.97;98881.97;310673;31;4114;-75
2023/03/07 00:58:39;;;;;;;;;;;;;;;7.21;84.02;98885.50;308776;31;2950;-75
2023/03/07 00:58:49;;;;;;;;;;;;;;;7.22;84.19;98881.97;304516;31;6459;-75
2023/03/07 00:59:01;;;;;;;;;;;;;;;7.21;83.81;98875.94;303639;32;5090;-77
2023/03/07 00:59:12;;;;;;;;;;;;;;;7.22;84.11;98874.19;301743;32;4429;-75
2023/03/07 00:59:22;;;;;;;;;;;;;;;7.21;84.02;98885.50;303647;32;851;-76
2023/03/07 00:59:32;;;;;;;;;;;;;;;7.21;83.76;98890.69;302848;32;4545;-75
2023/03/07 00:59:43;;;;;;;;;;;;;;;7.19;83.72;98887.31;300700;32;2653;-75
2023/03/07 00:59:53;;;;;;;;;;;;;;;7.20;84.06;98883.78;294599;33;4797;-75
2023/03/07 01:00:04;;;;;;;;;;;;;;;7.18;83.54;98885.59;293086;33;4136;-75
2023/03/07 01:00:14;;;;;;;;;;;;;;;7.17;84.12;98889.97;290956;33;4258;-75
2023/03/07 01:00:24;;;;;;;;;;;;;;;7.17;84.02;98889.13;294334;33;2957;-75
2023/03/07 01:00:35;;;;;;;;;;;;;;;7.16;83.75;98887.41;293959;33;6445;-75
2023/03/07 01:00:45;;;;;;;;;;;;;;;7.16;83.63;98888.28;287799;33;7763;-75
2023/03/07 01:00:55;;;;;;;;;;;;;;;7.17;83.70;98889.13;286633;33;5737;-77